| time (UTC) | temp C | wind direction | speed KPH | gust KPH | rain 1hr cm | rain 24hr cm | rain mn cm | humidity % | barometer mb |
| 20260510010516 | 11 | 203 | 8.0 | 14.5 | 0.03 | 1.32 | 1.02 | 92 | 1007.4 |
| 20260510005516 | 11 | 180 | 8.0 | 12.9 | 0.15 | 1.32 | 1.02 | 92 | 1007.4 |
| 20260510004516 | 11 | 180 | 4.8 | 8.0 | 0.25 | 1.32 | 1.02 | 92 | 1007.2 |
| 20260510003516 | 11 | 180 | 3.2 | 9.7 | 0.38 | 1.32 | 1.02 | 92 | 1007.2 |
| 20260510002536 | 11 | 180 | 3.2 | 11.3 | 0.66 | 1.32 | 1.02 | 92 | 1007.2 |
| 20260510001516 | 11 | 180 | 8.0 | 14.5 | 0.81 | 1.32 | 1.02 | 92 | 1007.2 |
| 20260510000516 | 11 | 270 | 3.2 | 6.4 | 0.79 | 1.30 | 0.99 | 91 | 1007.5 |
| 20260509235516 | 11 | 293 | 6.4 | 14.5 | 0.66 | 1.17 | 0.86 | 91 | 1007.6 |
| 20260509234516 | 11 | 270 | 11.3 | 24.1 | 0.56 | 1.07 | 0.76 | 91 | 1008.0 |
| 20260509233516 | 11 | 315 | 12.9 | 22.5 | 0.43 | 0.94 | 0.64 | 89 | 1007.6 |
| 20260509232516 | 11 | 338 | 29.0 | 45.1 | 0.15 | 0.66 | 0.36 | 85 | 1007.1 |
| 20260509231536 | 17 | 338 | 6.4 | 38.6 | 0.00 | 0.51 | 0.20 | 67 | 1006.3 |
| 20260509230516 | 17 | 180 | 3.2 | 11.3 | 0.00 | 0.51 | 0.20 | 64 | 1005.2 |
| 20260509225515 | 17 | 203 | 9.7 | 17.7 | 0.00 | 0.51 | 0.20 | 63 | 1005.2 |
| 20260509224536 | 17 | 203 | 4.8 | 14.5 | 0.00 | 0.51 | 0.20 | 64 | 1005.1 |
| 20260509223536 | 17 | 180 | 6.4 | 17.7 | 0.00 | 0.51 | 0.20 | 64 | 1005.1 |
| 20260509222516 | 17 | 180 | 11.3 | 29.0 | 0.00 | 0.51 | 0.20 | 64 | 1004.7 |
| 20260509221536 | 17 | 180 | 12.9 | 19.3 | 0.00 | 0.51 | 0.20 | 64 | 1004.7 |
| 20260509220556 | 17 | 203 | 8.0 | 24.1 | 0.00 | 0.51 | 0.20 | 62 | 1004.6 |
| 20260509215516 | 17 | 203 | 14.5 | 30.6 | 0.00 | 0.51 | 0.20 | 62 | 1004.6 |
| 20260509214516 | 17 | 180 | 12.9 | 25.7 | 0.00 | 0.51 | 0.20 | 64 | 1004.8 |
| 20260509213521 | 17 | 203 | 11.3 | 30.6 | 0.00 | 0.51 | 0.20 | 63 | 1004.7 |
| 20260509212517 | 17 | 180 | 16.1 | 41.8 | 0.00 | 0.51 | 0.20 | 60 | 1004.7 |
| 20260509211518 | 18 | 180 | 12.9 | 30.6 | 0.00 | 0.51 | 0.20 | 61 | 1004.8 |
| 20260509210518 | 18 | 203 | 8.0 | 27.4 | 0.00 | 0.51 | 0.20 | 58 | 1004.9 |
| 20260509205517 | 18 | 203 | 14.5 | 33.8 | 0.00 | 0.51 | 0.20 | 58 | 1005.0 |
| 20260509204518 | 18 | 225 | 9.7 | 29.0 | 0.00 | 0.51 | 0.20 | 60 | 1005.1 |
| 20260509203517 | 18 | 203 | 8.0 | 30.6 | 0.00 | 0.51 | 0.20 | 63 | 1005.3 |
| 20260509202538 | 17 | 203 | 8.0 | 38.6 | 0.00 | 0.51 | 0.20 | 62 | 1005.6 |
| 20260509201518 | 18 | 203 | 11.3 | 29.0 | 0.00 | 0.51 | 0.20 | 63 | 1005.8 |
| 20260509200538 | 17 | 203 | 14.5 | 32.2 | 0.00 | 0.51 | 0.20 | 61 | 1005.9 |
| 20260509195518 | 18 | 203 | 16.1 | 30.6 | 0.00 | 0.51 | 0.20 | 64 | 1006.0 |
| 20260509194517 | 17 | 203 | 6.4 | 30.6 | 0.00 | 0.51 | 0.20 | 66 | 1006.2 |
| 20260509193518 | 17 | 180 | 22.5 | 41.8 | 0.00 | 0.51 | 0.20 | 67 | 1006.3 |
| 20260509192518 | 17 | 203 | 6.4 | 20.9 | 0.00 | 0.51 | 0.20 | 65 | 1006.6 |
| 20260509191517 | 17 | 180 | 14.5 | 40.2 | 0.00 | 0.51 | 0.20 | 67 | 1006.4 |
| 20260509190518 | 17 | 203 | 19.3 | 37.0 | 0.00 | 0.51 | 0.20 | 69 | 1006.4 |
| 20260509185517 | 17 | 203 | 11.3 | 29.0 | 0.00 | 0.51 | 0.20 | 69 | 1006.6 |
| 20260509184517 | 17 | 180 | 12.9 | 27.4 | 0.00 | 0.51 | 0.20 | 69 | 1006.7 |
| 20260509183517 | 17 | 203 | 4.8 | 20.9 | 0.00 | 0.51 | 0.20 | 71 | 1006.8 |
| 20260509182518 | 17 | 180 | 11.3 | 27.4 | 0.00 | 0.51 | 0.20 | 70 | 1006.7 |
| 20260509181537 | 16 | 180 | 14.5 | 29.0 | 0.00 | 0.51 | 0.20 | 69 | 1006.8 |
| 20260509180517 | 17 | 180 | 9.7 | 32.2 | 0.00 | 0.51 | 0.20 | 72 | 1007.0 |
| 20260509175517 | 16 | 203 | 12.9 | 27.4 | 0.00 | 0.51 | 0.20 | 76 | 1006.7 |
| 20260509174517 | 16 | 180 | 11.3 | 22.5 | 0.00 | 0.51 | 0.20 | 76 | 1006.8 |
| 20260509173517 | 15 | 180 | 12.9 | 19.3 | 0.00 | 0.51 | 0.20 | 79 | 1007.0 |
| 20260509172537 | 15 | 180 | 16.1 | 25.7 | 0.00 | 0.51 | 0.20 | 82 | 1006.9 |
| 20260509171517 | 15 | 180 | 14.5 | 24.1 | 0.00 | 0.51 | 0.20 | 84 | 1007.1 |
| 20260509170517 | 15 | 180 | 4.8 | 11.3 | 0.00 | 0.51 | 0.20 | 84 | 1007.3 |
| 20260509165538 | 14 | 180 | 6.4 | 19.3 | 0.00 | 0.51 | 0.20 | 86 | 1007.3 |
| 20260509164517 | 13 | 180 | 8.0 | 17.7 | 0.00 | 0.51 | 0.20 | 87 | 1007.4 |
| 20260509163538 | 13 | 180 | 11.3 | 20.9 | 0.00 | 0.51 | 0.20 | 87 | 1007.5 |
| 20260509162517 | 13 | 180 | 9.7 | 20.9 | 0.00 | 0.51 | 0.20 | 87 | 1007.5 |
| 20260509161537 | 13 | 203 | 4.8 | 11.3 | 0.00 | 0.51 | 0.20 | 89 | 1007.5 |
| 20260509160537 | 12 | 180 | 11.3 | 20.9 | 0.00 | 0.51 | 0.20 | 90 | 1007.5 |
| 20260509155517 | 12 | 203 | 8.0 | 17.7 | 0.00 | 0.51 | 0.20 | 91 | 1007.6 |
| 20260509154518 | 12 | 180 | 6.4 | 16.1 | 0.00 | 0.51 | 0.20 | 92 | 1007.4 |
| 20260509153517 | 12 | 180 | 4.8 | 8.0 | 0.00 | 0.51 | 0.20 | 92 | 1007.6 |
| 20260509152537 | 11 | 203 | 3.2 | 9.7 | 0.00 | 0.51 | 0.20 | 92 | 1007.8 |
| 20260509151517 | 11 | 180 | 1.6 | 6.4 | 0.00 | 0.51 | 0.20 | 92 | 1007.8 |
| 20260509150517 | 11 | 203 | 6.4 | 12.9 | 0.00 | 0.51 | 0.20 | 92 | 1007.5 |
| 20260509145517 | 11 | 180 | 6.4 | 17.7 | 0.00 | 0.51 | 0.20 | 93 | 1007.6 |
| 20260509144517 | 11 | 180 | 6.4 | 17.7 | 0.00 | 0.51 | 0.20 | 93 | 1007.6 |
| 20260509143517 | 11 | 180 | 6.4 | 14.5 | 0.00 | 0.51 | 0.20 | 93 | 1007.4 |
| 20260509142517 | 11 | 180 | 6.4 | 12.9 | 0.00 | 0.51 | 0.20 | 93 | 1007.5 |
| 20260509141517 | 11 | 180 | 6.4 | 16.1 | 0.00 | 0.51 | 0.20 | 93 | 1007.5 |
| 20260509140517 | 11 | 180 | 4.8 | 11.3 | 0.00 | 0.51 | 0.20 | 93 | 1007.4 |
| 20260509135517 | 10 | 180 | 6.4 | 14.5 | 0.00 | 0.51 | 0.20 | 93 | 1007.5 |
| 20260509134518 | 10 | 180 | 8.0 | 17.7 | 0.00 | 0.51 | 0.20 | 93 | 1007.3 |
| 20260509133517 | 10 | 203 | 8.0 | 16.1 | 0.00 | 0.51 | 0.20 | 94 | 1007.5 |
| 20260509132517 | 10 | 203 | 6.4 | 14.5 | 0.00 | 0.51 | 0.20 | 94 | 1007.6 |
| 20260509131517 | 10 | 203 | 8.0 | 17.7 | 0.00 | 0.51 | 0.20 | 94 | 1007.6 |
| 20260509130517 | 10 | 180 | 4.8 | 9.7 | 0.00 | 0.51 | 0.20 | 94 | 1007.6 |
| 20260509125517 | 10 | 203 | 8.0 | 14.5 | 0.00 | 0.51 | 0.20 | 94 | 1007.6 |
| 20260509124517 | 10 | 203 | 6.4 | 14.5 | 0.00 | 0.51 | 0.20 | 94 | 1007.8 |
| 20260509123558 | 10 | 203 | 8.0 | 17.7 | 0.00 | 0.51 | 0.20 | 94 | 1008.0 |
| 20260509122537 | 10 | 203 | 8.0 | 14.5 | 0.00 | 0.51 | 0.20 | 94 | 1008.2 |
| 20260509121517 | 10 | 180 | 9.7 | 17.7 | 0.00 | 0.51 | 0.20 | 94 | 1008.2 |
| 20260509120517 | 10 | 203 | 4.8 | 9.7 | 0.00 | 0.51 | 0.20 | 94 | 1008.4 |
| 20260509115517 | 10 | 180 | 6.4 | 9.7 | 0.00 | 0.51 | 0.20 | 94 | 1008.3 |
| 20260509114517 | 9 | 203 | 6.4 | 11.3 | 0.00 | 0.51 | 0.20 | 94 | 1008.4 |
| 20260509113517 | 9 | 180 | 6.4 | 9.7 | 0.00 | 0.51 | 0.20 | 94 | 1008.4 |
| 20260509112517 | 9 | 180 | 6.4 | 11.3 | 0.00 | 0.51 | 0.20 | 94 | 1008.5 |
| 20260509111517 | 9 | 180 | 9.7 | 14.5 | 0.00 | 0.51 | 0.20 | 94 | 1008.3 |
| 20260509110517 | 9 | 180 | 8.0 | 12.9 | 0.00 | 0.51 | 0.20 | 94 | 1008.1 |
| 20260509105537 | 9 | 180 | 8.0 | 14.5 | 0.00 | 0.51 | 0.20 | 94 | 1008.2 |
| 20260509104557 | 9 | 180 | 8.0 | 11.3 | 0.00 | 0.51 | 0.20 | 94 | 1008.2 |
| 20260509103517 | 9 | 180 | 6.4 | 12.9 | 0.00 | 0.51 | 0.20 | 94 | 1008.2 |
| 20260509102517 | 9 | 180 | 6.4 | 11.3 | 0.00 | 0.51 | 0.20 | 94 | 1008.2 |
| 20260509101517 | 9 | 180 | 6.4 | 9.7 | 0.00 | 0.51 | 0.20 | 94 | 1008.4 |
| 20260509100517 | 9 | 180 | 8.0 | 14.5 | 0.00 | 0.51 | 0.20 | 94 | 1008.3 |
| 20260509095517 | 9 | 180 | 8.0 | 14.5 | 0.00 | 0.51 | 0.20 | 94 | 1008.6 |
| 20260509094517 | 9 | 180 | 8.0 | 14.5 | 0.03 | 0.51 | 0.20 | 94 | 1008.7 |
| 20260509093517 | 9 | 180 | 4.8 | 12.9 | 0.03 | 0.51 | 0.20 | 94 | 1008.7 |
| 20260509092537 | 9 | 180 | 6.4 | 12.9 | 0.03 | 0.51 | 0.20 | 94 | 1008.7 |
| 20260509091517 | 9 | 180 | 6.4 | 17.7 | 0.03 | 0.51 | 0.20 | 94 | 1008.7 |
| 20260509090517 | 9 | 203 | 1.6 | 9.7 | 0.03 | 0.51 | 0.20 | 94 | 1008.8 |
| 20260509085516 | 9 | 180 | 4.8 | 11.3 | 0.03 | 0.51 | 0.20 | 94 | 1008.8 |
| 20260509084517 | 9 | 180 | 6.4 | 12.9 | 0.00 | 0.48 | 0.18 | 94 | 1008.7 |
| 20260509083516 | 9 | 180 | 4.8 | 12.9 | 0.00 | 0.48 | 0.18 | 94 | 1008.8 |
| 20260509082517 | 9 | 180 | 6.4 | 11.3 | 0.00 | 0.48 | 0.18 | 94 | 1008.9 |
| 20260509081517 | 9 | 180 | 3.2 | 11.3 | 0.03 | 0.48 | 0.18 | 94 | 1009.0 |
| 20260509080518 | 9 | 180 | 3.2 | 9.7 | 0.03 | 0.48 | 0.18 | 94 | 1008.9 |
| 20260509075537 | 9 | 180 | 1.6 | 6.4 | 0.03 | 0.48 | 0.18 | 94 | 1008.9 |
| 20260509074517 | 9 | 0.0 | 0.0 | 0.03 | 0.48 | 0.18 | 94 | 1009.0 | |
| 20260509073517 | 9 | 180 | 3.2 | 8.0 | 0.03 | 0.48 | 0.18 | 94 | 1009.1 |
| 20260509072517 | 9 | 180 | 1.6 | 4.8 | 0.03 | 0.48 | 0.18 | 94 | 1009.1 |
| 20260509071517 | 9 | 180 | 4.8 | 14.5 | 0.00 | 0.46 | 0.15 | 94 | 1008.9 |
| 20260509070517 | 9 | 180 | 6.4 | 12.9 | 0.03 | 0.46 | 0.15 | 94 | 1009.0 |
| 20260509065537 | 9 | 180 | 3.2 | 9.7 | 0.05 | 0.46 | 0.15 | 94 | 1009.1 |
| 20260509064516 | 9 | 0.0 | 4.8 | 0.08 | 0.46 | 0.15 | 94 | 1009.2 | |
| 20260509063537 | 9 | 180 | 9.7 | 16.1 | 0.10 | 0.46 | 0.15 | 94 | 1009.2 |
| 20260509062537 | 9 | 180 | 4.8 | 11.3 | 0.13 | 0.46 | 0.15 | 93 | 1009.4 |
| 20260509061516 | 9 | 180 | 6.4 | 11.3 | 0.13 | 0.46 | 0.15 | 93 | 1009.5 |
| 20260509060517 | 9 | 180 | 6.4 | 9.7 | 0.10 | 0.43 | 0.13 | 93 | 1009.6 |
| 20260509055517 | 9 | 180 | 6.4 | 14.5 | 0.08 | 0.41 | 0.10 | 93 | 1009.8 |
| 20260509054517 | 9 | 203 | 3.2 | 11.3 | 0.05 | 0.38 | 0.08 | 93 | 1009.9 |
| 20260509053517 | 9 | 180 | 11.3 | 22.5 | 0.05 | 0.36 | 0.05 | 93 | 1009.9 |
| 20260509052516 | 9 | 203 | 9.7 | 19.3 | 0.03 | 0.33 | 0.03 | 93 | 1010.1 |
| 20260509051516 | 9 | 180 | 9.7 | 19.3 | 0.03 | 0.33 | 0.03 | 93 | 1010.1 |
| 20260509050536 | 9 | 203 | 6.4 | 16.1 | 0.03 | 0.33 | 0.03 | 93 | 1010.4 |
| 20260509045516 | 9 | 203 | 6.4 | 16.1 | 0.03 | 0.33 | 0.03 | 93 | 1010.4 |
| 20260509044517 | 9 | 180 | 6.4 | 14.5 | 0.03 | 0.33 | 0.03 | 93 | 1010.5 |
| 20260509043516 | 9 | 180 | 6.4 | 9.7 | 0.00 | 0.30 | 0.00 | 93 | 1010.4 |
| 20260509042516 | 9 | 180 | 8.0 | 12.9 | 0.00 | 0.30 | 0.00 | 93 | 1010.6 |
| 20260509041516 | 9 | 180 | 8.0 | 14.5 | 0.00 | 0.30 | 0.00 | 93 | 1010.7 |
| 20260509040516 | 9 | 180 | 8.0 | 14.5 | 0.00 | 0.30 | 0.00 | 93 | 1010.7 |
| 20260509035516 | 9 | 203 | 9.7 | 22.5 | 0.00 | 0.30 | 0.30 | 93 | 1010.9 |
| 20260509034516 | 9 | 180 | 6.4 | 12.9 | 0.00 | 0.30 | 0.30 | 93 | 1010.8 |
| 20260509033516 | 9 | 180 | 9.7 | 14.5 | 0.03 | 0.30 | 0.30 | 93 | 1010.7 |
| 20260509032536 | 9 | 180 | 8.0 | 14.5 | 0.03 | 0.30 | 0.30 | 93 | 1010.8 |
| 20260509031516 | 9 | 180 | 6.4 | 12.9 | 0.08 | 0.30 | 0.30 | 93 | 1010.9 |
| 20260509030516 | 9 | 180 | 4.8 | 9.7 | 0.13 | 0.30 | 0.30 | 93 | 1011.0 |
| 20260509025516 | 9 | 180 | 4.8 | 9.7 | 0.18 | 0.30 | 0.30 | 93 | 1011.0 |
| 20260509024536 | 9 | 180 | 4.8 | 8.0 | 0.20 | 0.30 | 0.30 | 93 | 1011.2 |
| 20260509023516 | 9 | 180 | 4.8 | 8.0 | 0.23 | 0.28 | 0.28 | 92 | 1011.2 |
| 20260509022516 | 9 | 180 | 1.6 | 8.0 | 0.25 | 0.28 | 0.28 | 92 | 1011.2 |
| 20260509021516 | 9 | 180 | 3.2 | 9.7 | 0.20 | 0.23 | 0.23 | 92 | 1011.3 |
| 20260509020516 | 9 | 180 | 3.2 | 8.0 | 0.18 | 0.18 | 0.18 | 92 | 1011.3 |
| 20260509015516 | 9 | 180 | 3.2 | 9.7 | 0.13 | 0.13 | 0.13 | 91 | 1011.4 |
| 20260509014516 | 9 | 180 | 4.8 | 14.5 | 0.10 | 0.10 | 0.10 | 91 | 1011.3 |
| 20260509013516 | 9 | 180 | 4.8 | 12.9 | 0.05 | 0.05 | 0.05 | 91 | 1011.1 |
| 20260509012516 | 9 | 180 | 8.0 | 16.1 | 0.03 | 0.03 | 0.03 | 90 | 1010.9 |
| 20260509011516 | 10 | 180 | 8.0 | 16.1 | 0.03 | 0.03 | 0.03 | 89 | 1010.8 |